Time;durP1;ratioP1;P1;durP2;ratioP2;P2;SDS_P1;SDS_P2;PMS_P1;PMS_P2;Temp;Humidity;BMP_temperature;BMP_pressure;BME280_temperature;BME280_humidity;BME280_pressure;Samples;Min_cycle;Max_cycle;Signal;HPM_P1;HPM_P2
2022/06/20 00:00:21;;;;;;;7.63;1.98;;;14.80;99.90;;;;;;5034476;28;20033;-76
2022/06/20 00:02:54;;;;;;;7.78;1.88;;;14.70;99.90;;;;;;5037478;28;20095;-76
2022/06/20 00:05:33;;;;;;;5.50;1.75;;;14.70;99.90;;;;;;5036146;28;20038;-75
2022/06/20 00:07:59;;;;;;;8.23;1.80;;;14.70;99.90;;;;;;5036030;28;20375;-76
2022/06/20 00:10:28;;;;;;;10.73;2.10;;;14.80;99.90;;;;;;5030379;28;20033;-76
2022/06/20 00:12:54;;;;;;;7.55;2.30;;;14.70;99.90;;;;;;5031841;28;20029;-76
2022/06/20 00:15:27;;;;;;;5.90;1.40;;;14.70;99.90;;;;;;5032545;28;20029;-75
2022/06/20 00:17:54;;;;;;;8.45;2.20;;;14.70;99.90;;;;;;5031823;28;20025;-75
2022/06/20 00:20:20;;;;;;;9.98;2.30;;;14.70;99.90;;;;;;5030510;28;20753;-75
2022/06/20 00:22:46;;;;;;;9.35;2.65;;;14.70;99.90;;;;;;5042501;28;20076;-75
2022/06/20 00:25:12;;;;;;;7.82;1.83;;;14.60;99.90;;;;;;5031430;28;20057;-76
2022/06/20 00:27:38;;;;;;;7.88;2.10;;;14.60;99.90;;;;;;5036037;28;20078;-76
2022/06/20 00:30:05;;;;;;;9.93;2.13;;;14.70;99.90;;;;;;5030984;28;20033;-76
2022/06/20 00:32:31;;;;;;;7.15;1.67;;;14.70;99.90;;;;;;5036069;28;20018;-75
2022/06/20 00:34:57;;;;;;;6.47;1.75;;;14.70;99.90;;;;;;5036425;28;20025;-76
2022/06/20 00:37:22;;;;;;;10.07;2.08;;;14.70;99.90;;;;;;5037432;28;20029;-75
2022/06/20 00:39:50;;;;;;;11.73;2.67;;;14.70;99.90;;;;;;5031322;28;20486;-75
2022/06/20 00:42:16;;;;;;;8.75;1.58;;;14.70;99.90;;;;;;5036640;28;20025;-75
2022/06/20 00:44:46;;;;;;;10.32;2.67;;;14.70;99.90;;;;;;5034164;28;20033;-76
2022/06/20 00:47:17;;;;;;;6.50;2.15;;;14.60;99.90;;;;;;5029573;28;20026;-75
2022/06/20 00:50:05;;;;;;;4.53;1.75;;;14.60;99.90;;;;;;5034369;28;20029;-75
2022/06/20 00:52:45;;;;;;;9.55;2.13;;;14.60;99.90;;;;;;5034027;28;20031;-76
2022/06/20 00:55:13;;;;;;;6.10;1.45;;;14.70;99.90;;;;;;5032135;28;20029;-75
2022/06/20 00:58:00;;;;;;;6.95;1.63;;;14.60;99.90;;;;;;5035469;28;20044;-75
2022/06/20 01:00:31;;;;;;;5.10;1.80;;;14.60;99.90;;;;;;5031212;28;20025;-75
2022/06/20 01:03:13;;;;;;;7.60;2.13;;;14.60;99.90;;;;;;5033184;28;20068;-75
2022/06/20 01:05:56;;;;;;;7.22;1.85;;;14.60;99.90;;;;;;5030072;28;20030;-75
2022/06/20 01:08:33;;;;;;;7.25;1.80;;;14.60;99.90;;;;;;5031153;28;20021;-75
2022/06/20 01:11:03;;;;;;;6.85;1.67;;;14.60;99.90;;;;;;5027501;28;20051;-75
2022/06/20 01:13:30;;;;;;;5.90;1.90;;;14.50;99.90;;;;;;5033086;28;20025;-76
2022/06/20 01:16:04;;;;;;;8.98;2.00;;;14.50;99.90;;;;;;5017515;28;20036;-76
2022/06/20 01:18:34;;;;;;;7.38;2.40;;;14.60;99.90;;;;;;5018088;28;20028;-76
2022/06/20 01:21:01;;;;;;;8.65;2.75;;;14.50;99.90;;;;;;5036034;28;20544;-76
2022/06/20 01:23:46;;;;;;;8.70;2.15;;;14.60;99.90;;;;;;5019137;28;20021;-76
2022/06/20 01:26:36;;;;;;;10.55;1.95;;;14.50;99.90;;;;;;5035734;28;20025;-74
2022/06/20 01:29:05;;;;;;;6.05;1.63;;;14.50;99.90;;;;;;5031208;28;20053;-75
2022/06/20 01:31:35;;;;;;;7.38;1.83;;;14.50;99.90;;;;;;5028654;28;20021;-76
2022/06/20 01:34:02;;;;;;;9.20;2.28;;;14.40;99.90;;;;;;5034155;28;20103;-75
2022/06/20 01:39:17;;;;;;;9.02;1.90;;;14.20;99.90;;;;;;5032465;28;20116;-75
2022/06/20 01:44:35;;;;;;;14.38;2.42;;;14.10;99.90;;;;;;5034161;28;20036;-75
2022/06/20 01:47:00;;;;;;;7.28;2.15;;;14.20;99.90;;;;;;5031512;28;20025;-75
2022/06/20 01:49:31;;;;;;;6.22;1.95;;;14.20;99.90;;;;;;5014314;28;20052;-75
2022/06/20 01:52:39;;;;;;;6.63;1.77;;;14.10;99.90;;;;;;5029510;28;20049;-75
2022/06/20 01:55:20;;;;;;;9.57;2.10;;;14.20;99.90;;;;;;5031991;28;20014;-75
2022/06/20 01:57:50;;;;;;;5.65;2.05;;;14.20;99.90;;;;;;5035150;28;20053;-75
2022/06/20 02:00:22;;;;;;;6.80;1.45;;;14.10;99.90;;;;;;5033562;28;20029;-74
2022/06/20 02:02:59;;;;;;;7.35;1.77;;;14.10;99.90;;;;;;5035809;28;20021;-75
2022/06/20 02:05:27;;;;;;;11.40;2.30;;;14.20;99.90;;;;;;5028434;28;20617;-76
2022/06/20 02:07:56;;;;;;;8.05;1.67;;;14.10;99.90;;;;;;5032098;28;20076;-75
2022/06/20 02:10:28;;;;;;;5.90;2.05;;;14.20;99.90;;;;;;5026931;28;20060;-76
2022/06/20 02:12:57;;;;;;;8.25;1.70;;;14.20;99.90;;;;;;5031883;28;20048;-75
2022/06/20 02:15:24;;;;;;;5.70;1.67;;;14.20;99.90;;;;;;5034077;28;20024;-75
2022/06/20 02:17:51;;;;;;;5.40;1.30;;;14.10;99.90;;;;;;5034390;28;20033;-75
2022/06/20 02:20:23;;;;;;;7.10;2.00;;;14.10;99.90;;;;;;5023026;28;20033;-75
2022/06/20 02:22:51;;;;;;;11.18;2.00;;;14.00;99.90;;;;;;5029774;28;20040;-75
2022/06/20 02:25:22;;;;;;;9.95;1.92;;;14.00;99.90;;;;;;5015126;28;20029;-75
2022/06/20 02:27:54;;;;;;;8.65;1.75;;;14.00;99.90;;;;;;5023981;28;20029;-75
2022/06/20 02:30:20;;;;;;;7.50;1.80;;;13.90;99.90;;;;;;5012530;28;20052;-74
2022/06/20 02:32:58;;;;;;;7.68;1.70;;;13.90;99.90;;;;;;5032091;28;20034;-75
2022/06/20 02:35:25;;;;;;;11.13;1.95;;;13.90;99.90;;;;;;5030158;28;20026;-75
2022/06/20 02:37:51;;;;;;;9.35;2.13;;;13.90;99.90;;;;;;5033281;28;20048;-74
2022/06/20 02:40:22;;;;;;;5.97;1.80;;;13.80;99.90;;;;;;5028602;28;20029;-74
2022/06/20 02:43:13;;;;;;;5.63;1.63;;;13.80;99.90;;;;;;5030703;28;20033;-74
2022/06/20 02:45:40;;;;;;;5.88;1.75;;;13.80;99.90;;;;;;5032275;28;20037;-75
2022/06/20 02:48:09;;;;;;;6.10;1.77;;;13.80;99.90;;;;;;5029062;28;20034;-75
2022/06/20 02:50:42;;;;;;;7.13;2.17;;;13.80;99.90;;;;;;5028936;28;20083;-75
2022/06/20 02:53:23;;;;;;;6.78;2.00;;;13.70;99.90;;;;;;5036167;28;20029;-74
2022/06/20 02:55:51;;;;;;;8.60;2.10;;;13.80;99.90;;;;;;5027583;28;20030;-75
2022/06/20 02:58:22;;;;;;;9.45;2.85;;;13.80;99.90;;;;;;5037108;28;20029;-74
2022/06/20 03:00:59;;;;;;;4.53;1.77;;;13.70;99.90;;;;;;5023987;28;20075;-75
2022/06/20 03:03:36;;;;;;;10.85;2.05;;;13.70;99.90;;;;;;5031650;28;20108;-75
2022/06/20 03:06:09;;;;;;;9.52;2.13;;;13.70;99.90;;;;;;5033113;28;20026;-75
2022/06/20 03:08:35;;;;;;;6.95;1.95;;;13.70;99.90;;;;;;5030835;28;20029;-76
2022/06/20 03:11:05;;;;;;;7.72;2.17;;;13.70;99.90;;;;;;5028898;28;20078;-75
2022/06/20 03:13:32;;;;;;;9.40;1.98;;;13.70;99.90;;;;;;5015386;28;20038;-76
2022/06/20 03:16:02;;;;;;;7.38;1.90;;;13.60;99.90;;;;;;5032156;28;20036;-75
2022/06/20 03:18:28;;;;;;;8.57;2.20;;;13.60;99.90;;;;;;5036119;28;20026;-76
2022/06/20 03:20:54;;;;;;;8.25;2.10;;;13.60;99.90;;;;;;5035121;28;20021;-75
2022/06/20 03:23:30;;;;;;;7.10;1.90;;;13.50;99.90;;;;;;5036068;28;20504;-75
2022/06/20 03:25:59;;;;;;;5.72;1.40;;;13.50;99.90;;;;;;5039378;28;20029;-75
2022/06/20 03:28:26;;;;;;;10.80;2.30;;;13.50;99.90;;;;;;5019080;28;20056;-76
2022/06/20 03:30:52;;;;;;;8.63;2.10;;;13.60;99.90;;;;;;5016182;28;20029;-76
2022/06/20 03:33:21;;;;;;;10.68;2.72;;;13.60;99.90;;;;;;5033905;28;20060;-76
2022/06/20 03:36:10;;;;;;;8.20;1.73;;;13.70;99.90;;;;;;5033926;28;20095;-75
2022/06/20 03:38:37;;;;;;;8.85;1.90;;;13.70;99.90;;;;;;5033892;28;20025;-75
2022/06/20 03:41:07;;;;;;;8.30;2.08;;;13.60;99.90;;;;;;5036755;28;20017;-75
2022/06/20 03:43:34;;;;;;;7.25;2.17;;;13.70;99.90;;;;;;5037386;28;20497;-76
2022/06/20 03:46:04;;;;;;;11.65;2.30;;;13.60;99.90;;;;;;5034112;28;20101;-75
2022/06/20 03:48:38;;;;;;;11.85;2.40;;;13.60;99.90;;;;;;5033897;28;20021;-75
2022/06/20 03:51:16;;;;;;;8.25;2.00;;;13.70;99.90;;;;;;5034339;28;20037;-75
2022/06/20 03:53:50;;;;;;;8.02;2.00;;;13.60;99.90;;;;;;5036980;28;20040;-76
2022/06/20 03:56:20;;;;;;;8.15;2.45;;;13.70;99.90;;;;;;5028758;28;20033;-76
2022/06/20 03:59:14;;;;;;;11.20;2.50;;;13.70;99.90;;;;;;5032807;28;20041;-77
2022/06/20 04:01:52;;;;;;;6.45;1.98;;;13.70;99.90;;;;;;5036471;28;20498;-76
2022/06/20 04:04:27;;;;;;;8.65;2.25;;;13.80;99.90;;;;;;5030161;28;20069;-76
2022/06/20 04:07:08;;;;;;;7.72;1.88;;;13.80;99.90;;;;;;5026158;28;20120;-76
2022/06/20 04:12:40;;;;;;;10.40;2.40;;;13.80;99.90;;;;;;5035341;28;20048;-76
2022/06/20 04:15:12;;;;;;;10.75;3.20;;;13.90;99.90;;;;;;5036006;28;20025;-75
2022/06/20 04:20:46;;;;;;;10.95;3.05;;;13.90;99.90;;;;;;5037013;28;20060;-76
2022/06/20 04:23:20;;;;;;;11.48;2.70;;;13.90;99.90;;;;;;5020174;28;20052;-77
2022/06/20 04:26:12;;;;;;;9.38;2.33;;;13.90;99.90;;;;;;5014685;28;20140;-75
2022/06/20 04:28:58;;;;;;;5.45;2.05;;;13.80;99.90;;;;;;5041628;28;20036;-76
2022/06/20 04:31:32;;;;;;;10.98;3.08;;;13.80;99.90;;;;;;5023842;28;20038;-77
2022/06/20 04:34:19;;;;;;;9.93;2.15;;;13.80;99.90;;;;;;5007507;28;20018;-75
2022/06/20 04:37:13;;;;;;;6.68;2.22;;;13.80;99.90;;;;;;5018546;28;20039;-73
2022/06/20 04:39:51;;;;;;;8.20;1.90;;;13.80;99.90;;;;;;5015978;28;20056;-73
2022/06/20 04:42:39;;;;;;;10.43;2.80;;;13.90;99.90;;;;;;5011255;28;20039;-73
2022/06/20 04:45:17;;;;;;;9.18;2.47;;;13.90;99.90;;;;;;5005132;28;20021;-72
2022/06/20 04:47:49;;;;;;;9.98;2.67;;;13.90;99.90;;;;;;5032977;28;21190;-73
2022/06/20 04:50:22;;;;;;;8.27;2.67;;;13.90;99.90;;;;;;5036489;28;20080;-73
2022/06/20 04:52:52;;;;;;;6.72;2.38;;;14.00;99.90;;;;;;5031830;28;20030;-72
2022/06/20 04:55:23;;;;;;;13.52;3.30;;;14.00;99.90;;;;;;5016257;28;20099;-73
2022/06/20 04:57:52;;;;;;;8.98;2.60;;;14.00;99.90;;;;;;5031816;28;20102;-73
2022/06/20 05:00:21;;;;;;;8.80;2.40;;;14.10;99.90;;;;;;5024597;28;20064;-73
2022/06/20 05:02:53;;;;;;;9.35;2.58;;;14.10;99.90;;;;;;5026005;28;20021;-73
2022/06/20 05:05:24;;;;;;;8.95;2.80;;;14.10;99.90;;;;;;5030998;28;20486;-74
2022/06/20 05:07:50;;;;;;;11.07;3.53;;;14.20;99.90;;;;;;5029007;28;20038;-75
2022/06/20 05:10:23;;;;;;;10.18;2.55;;;14.20;99.90;;;;;;5033213;28;20078;-75
2022/06/20 05:13:00;;;;;;;10.23;2.90;;;14.20;99.90;;;;;;5016323;28;20436;-75
2022/06/20 05:15:40;;;;;;;9.18;2.55;;;14.30;99.90;;;;;;5026106;28;20036;-77
2022/06/20 05:18:25;;;;;;;6.55;2.47;;;14.40;99.90;;;;;;5010287;28;20046;-77
2022/06/20 05:20:55;;;;;;;14.25;2.80;;;14.40;99.90;;;;;;5033325;28;20060;-77
2022/06/20 05:23:31;;;;;;;7.55;1.92;;;14.50;99.90;;;;;;5032600;28;20037;-76
2022/06/20 05:26:00;;;;;;;9.20;2.45;;;14.50;99.90;;;;;;5021135;28;21098;-75
2022/06/20 05:28:29;;;;;;;11.15;2.38;;;14.60;99.90;;;;;;5016636;28;20348;-76
2022/06/20 05:30:56;;;;;;;8.25;1.88;;;14.60;99.90;;;;;;5018961;28;20021;-75
2022/06/20 05:33:41;;;;;;;8.88;2.58;;;14.70;99.90;;;;;;5034973;28;20029;-76
2022/06/20 05:36:13;;;;;;;8.93;2.17;;;14.80;99.90;;;;;;5023687;28;20116;-77
2022/06/20 05:38:56;;;;;;;14.95;2.80;;;14.80;99.90;;;;;;5045093;28;20033;-73
2022/06/20 05:41:22;;;;;;;11.35;2.17;;;14.90;99.90;;;;;;5031012;28;20509;-78
2022/06/20 05:43:48;;;;;;;9.73;2.53;;;14.90;99.90;;;;;;5029166;28;20029;-74
2022/06/20 05:46:24;;;;;;;9.43;2.15;;;15.00;99.90;;;;;;5031276;28;21472;-75
2022/06/20 05:48:53;;;;;;;6.30;2.10;;;15.10;99.90;;;;;;5027540;28;20026;-75
2022/06/20 05:51:22;;;;;;;10.32;1.88;;;15.40;99.90;;;;;;5030982;28;20033;-74
2022/06/20 05:53:53;;;;;;;10.02;2.03;;;15.70;99.90;;;;;;5034204;28;20064;-75
2022/06/20 05:56:43;;;;;;;8.07;1.77;;;15.80;99.90;;;;;;5033104;28;20033;-76
2022/06/20 05:59:45;;;;;;;10.52;2.63;;;15.90;99.90;;;;;;5036159;28;20025;-80
2022/06/20 06:02:16;;;;;;;7.95;2.08;;;15.80;99.90;;;;;;5037455;28;21366;-75
2022/06/20 06:04:51;;;;;;;7.55;2.33;;;15.80;99.90;;;;;;5052258;28;20043;-77
2022/06/20 06:07:25;;;;;;;8.25;2.10;;;15.80;99.90;;;;;;5042352;28;20025;-75
2022/06/20 06:10:20;;;;;;;13.48;2.38;;;15.80;99.90;;;;;;5022764;28;20122;-75
2022/06/20 06:13:11;;;;;;;6.80;2.45;;;15.80;99.90;;;;;;5005684;28;20041;-75
2022/06/20 06:16:46;;;;;;;4.50;1.45;;;15.80;99.90;;;;;;5011900;28;20135;-76
2022/06/20 06:18:36;;;;;;;7.97;2.20;;;15.90;99.90;;;;;;5026908;28;20025;-76
2022/06/20 06:21:02;;;;;;;12.75;2.20;;;16.00;99.90;;;;;;5023582;28;20040;-78
2022/06/20 06:23:29;;;;;;;6.80;1.80;;;16.10;99.90;;;;;;5034954;28;20108;-76
2022/06/20 06:25:54;;;;;;;6.22;1.50;;;16.20;99.90;;;;;;5028554;28;20051;-73
2022/06/20 06:28:24;;;;;;;6.20;1.60;;;16.20;99.90;;;;;;5032305;28;20048;-75
2022/06/20 06:31:00;;;;;;;5.65;1.48;;;16.10;99.90;;;;;;5028425;28;20025;-76
2022/06/20 06:33:32;;;;;;;5.30;1.33;;;16.10;99.90;;;;;;5031233;28;20041;-75
2022/06/20 06:36:09;;;;;;;4.90;1.48;;;16.10;99.90;;;;;;5024814;28;20022;-78
2022/06/20 06:39:07;;;;;;;5.47;1.40;;;16.10;99.90;;;;;;5010101;28;20037;-77
2022/06/20 06:41:37;;;;;;;3.95;1.35;;;16.00;99.90;;;;;;5010602;28;20045;-74
2022/06/20 06:44:16;;;;;;;4.37;1.43;;;16.10;99.90;;;;;;5028623;28;20447;-77
2022/06/20 06:46:46;;;;;;;3.85;1.50;;;16.00;99.90;;;;;;5026913;28;20476;-74
2022/06/20 06:49:24;;;;;;;6.10;1.50;;;16.10;99.90;;;;;;5028127;28;20030;-76
2022/06/20 06:51:53;;;;;;;2.40;1.23;;;16.10;99.90;;;;;;5035325;28;21699;-74
2022/06/20 06:54:43;;;;;;;4.22;1.30;;;16.00;99.90;;;;;;5033721;28;20029;-74
2022/06/20 06:57:20;;;;;;;5.00;1.80;;;16.10;99.90;;;;;;5033834;28;20087;-75
2022/06/20 06:59:55;;;;;;;4.05;1.40;;;16.20;99.90;;;;;;5033350;28;20153;-74
2022/06/20 07:02:25;;;;;;;6.78;2.28;;;16.30;99.90;;;;;;5031604;28;20033;-75
2022/06/20 07:05:02;;;;;;;5.35;1.80;;;16.20;99.90;;;;;;5034432;28;20025;-74
2022/06/20 07:07:35;;;;;;;3.88;1.60;;;16.10;99.90;;;;;;5030568;28;20099;-74
2022/06/20 07:10:02;;;;;;;5.85;2.05;;;16.00;99.90;;;;;;5034773;28;20045;-74
2022/06/20 07:12:41;;;;;;;4.47;1.65;;;15.90;99.90;;;;;;5013965;28;20036;-78
2022/06/20 07:15:11;;;;;;;6.75;1.52;;;15.90;99.90;;;;;;5032378;28;20041;-77
2022/06/20 07:17:50;;;;;;;5.70;1.50;;;16.00;99.90;;;;;;5035886;28;20037;-76
2022/06/20 07:20:18;;;;;;;6.45;1.55;;;16.10;99.90;;;;;;5037413;28;20033;-76
2022/06/20 07:22:47;;;;;;;5.43;1.83;;;16.10;99.90;;;;;;5036185;28;20264;-76
2022/06/20 07:25:27;;;;;;;7.22;2.35;;;16.10;99.90;;;;;;5034417;28;20032;-76
2022/06/20 07:28:01;;;;;;;5.35;1.90;;;16.20;99.90;;;;;;5038119;28;20048;-76
2022/06/20 07:30:33;;;;;;;6.25;1.70;;;16.20;99.90;;;;;;5033695;28;20532;-77
2022/06/20 07:33:24;;;;;;;5.07;2.13;;;16.30;99.90;;;;;;5035447;28;20044;-77
2022/06/20 07:35:56;;;;;;;4.25;1.55;;;16.50;99.90;;;;;;5037186;28;20028;-76
2022/06/20 07:38:28;;;;;;;4.07;1.63;;;16.50;99.90;;;;;;5033498;28;20465;-77
2022/06/20 07:41:08;;;;;;;6.28;1.95;;;16.60;99.90;;;;;;5031679;28;20056;-76
2022/06/20 07:43:34;;;;;;;4.60;1.13;;;16.50;99.90;;;;;;5036593;28;20124;-76
2022/06/20 07:46:31;;;;;;;7.35;2.20;;;16.50;99.90;;;;;;5025967;28;20159;-77
2022/06/20 07:49:03;;;;;;;6.28;1.65;;;16.70;99.90;;;;;;5033623;28;20038;-77
2022/06/20 07:51:46;;;;;;;6.82;1.83;;;16.90;99.90;;;;;;5033141;28;20108;-77
2022/06/20 07:54:14;;;;;;;3.80;1.50;;;16.80;99.90;;;;;;5036152;28;20024;-78
2022/06/20 07:57:12;;;;;;;6.28;2.40;;;16.80;99.90;;;;;;5051167;28;20030;-77
2022/06/20 08:00:07;;;;;;;10.20;3.70;;;16.90;99.70;;;;;;5037619;28;20025;-77
2022/06/20 08:02:40;;;;;;;4.80;1.42;;;17.00;99.00;;;;;;5035136;28;20046;-76
2022/06/20 08:05:07;;;;;;;5.13;1.65;;;17.20;98.40;;;;;;5030262;28;20081;-77
2022/06/20 08:07:44;;;;;;;2.78;1.40;;;17.40;98.50;;;;;;5039212;28;20068;-77
2022/06/20 08:10:31;;;;;;;2.58;1.08;;;17.50;98.00;;;;;;5042098;28;20029;-77
2022/06/20 08:13:21;;;;;;;2.78;1.02;;;17.40;97.20;;;;;;5036870;28;20032;-78
2022/06/20 08:15:54;;;;;;;3.42;0.90;;;17.30;97.60;;;;;;5012908;28;20040;-77
2022/06/20 08:18:22;;;;;;;6.43;1.40;;;17.20;96.90;;;;;;5035192;28;20112;-77
2022/06/20 08:20:55;;;;;;;4.70;1.27;;;17.20;96.10;;;;;;5034744;28;20037;-77
2022/06/20 08:23:28;;;;;;;3.88;1.17;;;17.10;96.50;;;;;;5037045;28;20087;-78
2022/06/20 08:26:03;;;;;;;8.75;1.85;;;17.00;96.90;;;;;;5031663;28;20421;-78
2022/06/20 08:28:40;;;;;;;4.70;1.75;;;17.00;97.00;;;;;;5025001;28;20041;-77
2022/06/20 08:31:18;;;;;;;4.43;1.50;;;17.10;97.00;;;;;;5045440;28;20029;-77
2022/06/20 08:34:00;;;;;;;4.82;1.17;;;17.30;96.50;;;;;;5022207;28;20056;-77
2022/06/20 08:37:05;;;;;;;11.20;4.85;;;17.50;96.30;;;;;;5036756;28;20052;-79
2022/06/20 08:39:42;;;;;;;6.15;1.88;;;17.50;96.30;;;;;;5034904;28;20049;-78
2022/06/20 08:42:41;;;;;;;5.25;1.95;;;17.40;96.30;;;;;;5037776;28;20029;-77
2022/06/20 08:45:29;;;;;;;3.90;1.75;;;17.30;96.40;;;;;;5032084;28;20060;-77
2022/06/20 08:48:24;;;;;;;6.22;2.00;;;17.10;96.90;;;;;;5033610;28;20169;-78
2022/06/20 08:50:55;;;;;;;5.22;1.85;;;17.00;97.30;;;;;;5036561;28;20395;-79
2022/06/20 08:54:02;;;;;;;5.10;1.85;;;17.00;97.20;;;;;;5037212;28;20020;-78
2022/06/20 08:56:53;;;;;;;5.20;1.85;;;17.10;96.70;;;;;;5016049;28;20174;-78
2022/06/20 08:59:48;;;;;;;4.60;1.85;;;17.40;96.40;;;;;;5036494;28;20032;-79
2022/06/20 09:02:43;;;;;;;6.95;2.63;;;17.40;96.30;;;;;;5037478;28;20039;-78
2022/06/20 09:05:52;;;;;;;4.50;2.08;;;17.60;97.50;;;;;;5036039;28;20036;-78
2022/06/20 09:08:55;;;;;;;6.43;2.30;;;17.80;96.80;;;;;;5021882;28;20049;-78
2022/06/20 09:11:54;;;;;;;3.85;1.70;;;18.00;96.50;;;;;;5037537;28;20064;-78
2022/06/20 09:15:02;;;;;;;5.47;2.42;;;18.10;96.10;;;;;;5033743;28;20025;-78
2022/06/20 09:17:46;;;;;;;6.82;2.00;;;18.20;95.00;;;;;;5017547;28;20735;-77
2022/06/20 09:20:26;;;;;;;3.35;1.80;;;18.20;95.00;;;;;;5039112;28;20032;-77
2022/06/20 09:23:04;;;;;;;4.57;2.05;;;18.20;95.40;;;;;;5033209;28;20580;-77
2022/06/20 09:25:53;;;;;;;7.50;2.75;;;18.30;95.10;;;;;;5033971;28;20033;-77
2022/06/20 09:28:34;;;;;;;6.53;2.65;;;18.30;94.90;;;;;;5034183;28;20049;-78
2022/06/20 09:31:38;;;;;;;9.13;3.05;;;18.20;95.20;;;;;;5033840;28;20034;-79
2022/06/20 09:34:27;;;;;;;8.25;2.85;;;18.40;94.60;;;;;;5036877;28;20047;-77
2022/06/20 09:36:59;;;;;;;3.58;1.77;;;18.20;94.70;;;;;;5035846;28;20511;-77
2022/06/20 09:39:32;;;;;;;6.15;2.47;;;18.10;94.90;;;;;;5033980;28;20047;-81
2022/06/20 09:41:58;;;;;;;7.95;2.85;;;17.90;94.80;;;;;;5033723;28;20489;-78
2022/06/20 09:44:27;;;;;;;6.38;2.30;;;17.80;94.70;;;;;;5030832;28;20036;-77
2022/06/20 09:47:23;;;;;;;5.95;2.13;;;17.60;94.90;;;;;;5010473;28;20040;-77
2022/06/20 09:49:55;;;;;;;7.50;2.30;;;17.50;95.40;;;;;;5035295;28;20025;-77
2022/06/20 09:52:50;;;;;;;8.70;2.60;;;17.40;95.50;;;;;;5032079;28;20023;-80
2022/06/20 09:55:27;;;;;;;6.53;2.40;;;17.70;95.00;;;;;;5030351;28;20100;-76
2022/06/20 09:58:07;;;;;;;8.23;2.97;;;17.90;94.30;;;;;;5031036;28;20032;-77
2022/06/20 10:00:47;;;;;;;6.78;2.58;;;18.00;94.60;;;;;;5034674;28;20488;-77
2022/06/20 10:03:27;;;;;;;7.03;3.08;;;18.20;93.90;;;;;;5043028;28;20035;-76
2022/06/20 10:06:14;;;;;;;9.88;2.65;;;18.30;94.10;;;;;;5037278;28;20112;-76
2022/06/20 10:08:45;;;;;;;7.65;2.50;;;18.30;92.80;;;;;;5033757;28;20035;-78
2022/06/20 10:11:23;;;;;;;4.38;2.28;;;18.30;93.10;;;;;;5035425;28;20036;-77
2022/06/20 10:14:02;;;;;;;9.10;2.40;;;18.50;92.40;;;;;;5033871;28;20045;-76
2022/06/20 10:17:02;;;;;;;6.32;2.00;;;18.70;90.40;;;;;;5013141;28;20033;-77
2022/06/20 10:19:37;;;;;;;5.55;2.00;;;18.80;90.20;;;;;;5016399;28;20107;-76
2022/06/20 10:22:08;;;;;;;5.55;2.33;;;18.90;88.90;;;;;;5034449;28;20072;-77
2022/06/20 10:25:03;;;;;;;6.38;2.03;;;18.90;88.90;;;;;;5030184;28;20084;-77
2022/06/20 10:28:09;;;;;;;5.80;2.05;;;19.00;89.10;;;;;;5036264;28;20043;-78
2022/06/20 10:31:12;;;;;;;8.75;2.55;;;19.00;90.00;;;;;;5024151;28;20041;-78
2022/06/20 10:34:05;;;;;;;8.65;2.28;;;19.00;90.10;;;;;;5033382;28;20037;-76
2022/06/20 10:36:51;;;;;;;9.38;2.95;;;19.00;89.20;;;;;;5039095;28;20029;-76
2022/06/20 10:39:42;;;;;;;6.72;2.55;;;19.30;85.80;;;;;;5028899;28;20112;-75
2022/06/20 10:42:32;;;;;;;10.27;3.22;;;19.40;86.30;;;;;;5022426;28;20112;-77
2022/06/20 10:45:19;;;;;;;13.73;3.58;;;19.40;86.00;;;;;;5010948;28;20040;-78
2022/06/20 10:47:45;;;;;;;7.68;2.55;;;19.20;86.30;;;;;;5032375;28;20040;-76
2022/06/20 10:50:51;;;;;;;11.23;2.63;;;19.30;87.40;;;;;;5034719;28;20031;-76
2022/06/20 10:53:58;;;;;;;10.60;2.60;;;19.30;87.10;;;;;;5031907;28;20786;-76
2022/06/20 10:56:42;;;;;;;10.00;2.33;;;19.00;85.70;;;;;;5036249;28;20021;-77
2022/06/20 10:59:30;;;;;;;3.55;1.90;;;18.80;85.90;;;;;;5040712;28;20489;-77
2022/06/20 11:02:37;;;;;;;5.13;2.13;;;18.90;86.30;;;;;;5015668;28;20053;-77
2022/06/20 11:05:18;;;;;;;10.57;2.33;;;18.90;86.60;;;;;;5020897;28;20136;-76
2022/06/20 11:08:23;;;;;;;7.40;2.30;;;19.00;85.90;;;;;;5032069;28;20127;-76
2022/06/20 11:11:10;;;;;;;5.88;2.40;;;19.00;85.40;;;;;;5039858;28;20029;-76
2022/06/20 11:13:45;;;;;;;4.60;1.83;;;19.00;82.70;;;;;;5031497;28;20025;-78
2022/06/20 11:16:36;;;;;;;5.22;1.60;;;18.90;83.30;;;;;;5019593;28;20032;-82
2022/06/20 11:19:17;;;;;;;5.53;2.13;;;18.70;83.50;;;;;;5038032;28;20029;-79
2022/06/20 11:21:58;;;;;;;6.45;2.28;;;18.60;84.50;;;;;;5032050;28;20049;-74
2022/06/20 11:24:56;;;;;;;3.40;1.65;;;18.80;85.60;;;;;;5026798;28;20025;-75
2022/06/20 11:27:49;;;;;;;5.50;2.50;;;20.90;84.30;;;;;;5021026;28;20048;-79
2022/06/20 11:30:23;;;;;;;4.93;1.75;;;23.40;81.50;;;;;;5032129;28;20094;-80
2022/06/20 11:32:54;;;;;;;4.22;1.40;;;25.30;69.60;;;;;;5023981;28;20088;-80
2022/06/20 11:35:46;;;;;;;6.13;1.38;;;26.90;61.10;;;;;;5034331;28;20179;-78
2022/06/20 11:38:32;;;;;;;3.90;1.30;;;28.70;58.30;;;;;;5032642;28;20049;-77
2022/06/20 11:41:24;;;;;;;3.30;1.30;;;28.70;52.40;;;;;;5035596;28;20049;-78
2022/06/20 11:44:27;;;;;;;4.28;1.30;;;28.00;49.70;;;;;;5041443;28;20041;-78
2022/06/20 11:47:07;;;;;;;2.65;1.40;;;26.90;52.40;;;;;;5031874;28;20034;-79
2022/06/20 11:50:14;;;;;;;4.50;1.73;;;25.90;52.80;;;;;;5033709;28;20045;-81
2022/06/20 11:52:55;;;;;;;3.28;1.55;;;25.30;53.90;;;;;;5022305;28;20034;-79
2022/06/20 11:55:51;;;;;;;3.30;1.30;;;24.40;55.30;;;;;;5035435;28;20033;-79
2022/06/20 11:58:49;;;;;;;4.65;1.45;;;24.50;56.30;;;;;;5032943;28;20033;-81
2022/06/20 12:01:21;;;;;;;4.35;1.33;;;24.70;57.30;;;;;;5031020;28;20414;-79
2022/06/20 12:04:01;;;;;;;4.03;1.00;;;25.40;55.50;;;;;;5034675;28;20032;-79
2022/06/20 12:06:35;;;;;;;4.00;1.27;;;26.50;52.00;;;;;;5030649;28;20033;-84
2022/06/20 12:09:24;;;;;;;4.60;1.20;;;27.10;53.30;;;;;;5036871;28;20036;-80
2022/06/20 12:11:57;;;;;;;2.88;0.90;;;28.10;52.00;;;;;;5038095;28;20400;-78
2022/06/20 12:14:25;;;;;;;2.67;1.20;;;28.80;51.50;;;;;;5036024;28;20081;-78
2022/06/20 12:17:31;;;;;;;4.38;1.35;;;28.50;50.00;;;;;;5032365;28;20443;-79
2022/06/20 12:23:50;;;;;;;3.97;1.00;;;25.60;54.90;;;;;;5040220;28;20048;-79
2022/06/20 12:26:39;;;;;;;3.53;1.00;;;26.20;54.90;;;;;;5033636;28;20033;-79
2022/06/20 12:29:20;;;;;;;3.17;0.90;;;27.30;54.40;;;;;;5035804;28;20026;-80
2022/06/20 12:31:50;;;;;;;3.53;1.20;;;28.10;50.70;;;;;;5035250;28;20116;-79
2022/06/20 12:34:34;;;;;;;4.10;1.17;;;27.20;51.40;;;;;;5033233;28;20134;-81
2022/06/20 12:37:08;;;;;;;2.10;1.00;;;26.00;52.50;;;;;;5044350;28;20105;-79
2022/06/20 12:40:16;;;;;;;4.68;1.30;;;24.80;54.70;;;;;;5044699;28;20402;-84
2022/06/20 12:42:53;;;;;;;3.85;1.08;;;24.00;55.40;;;;;;5024721;28;20323;-77
2022/06/20 12:45:39;;;;;;;1.58;0.90;;;23.60;56.10;;;;;;5034260;28;20545;-78
2022/06/20 12:48:18;;;;;;;1.95;1.00;;;24.10;56.10;;;;;;5039332;28;20036;-81
2022/06/20 12:50:50;;;;;;;3.72;1.17;;;25.40;54.20;;;;;;5031429;28;20603;-78
2022/06/20 12:53:45;;;;;;;3.15;0.90;;;26.30;53.30;;;;;;5035847;28;20076;-78
2022/06/20 12:56:29;;;;;;;2.58;0.88;;;27.10;52.20;;;;;;5021220;28;20129;-80
2022/06/20 12:59:07;;;;;;;3.97;1.08;;;26.60;50.90;;;;;;5028675;28;20044;-84
2022/06/20 13:01:52;;;;;;;2.70;1.00;;;26.60;51.70;;;;;;5036040;28;20036;-81
2022/06/20 13:04:53;;;;;;;5.80;0.98;;;26.50;50.20;;;;;;5032413;28;20045;-79
2022/06/20 13:07:28;;;;;;;5.15;0.85;;;26.80;50.20;;;;;;5036583;28;20052;-78
2022/06/20 13:10:19;;;;;;;1.50;0.80;;;26.80;49.30;;;;;;5034516;28;20033;-78
2022/06/20 13:13:04;;;;;;;2.58;0.93;;;26.20;50.90;;;;;;5033735;28;20033;-78
2022/06/20 13:16:30;;;;;;;3.28;1.02;;;25.70;51.80;;;;;;5036468;28;20038;-78
2022/06/20 13:19:35;;;;;;;3.05;0.88;;;26.00;52.30;;;;;;4979908;28;20038;-79
2022/06/20 13:22:29;;;;;;;1.50;0.88;;;28.50;50.90;;;;;;5014126;28;20101;-78
2022/06/20 13:25:23;;;;;;;4.43;1.40;;;28.90;47.20;;;;;;5018812;28;20465;-80
2022/06/20 13:28:09;;;;;;;6.13;1.50;;;27.50;48.20;;;;;;5012206;28;20038;-85
2022/06/20 13:31:11;;;;;;;29.85;21.30;;;26.00;50.70;;;;;;4983266;28;20080;-78
2022/06/20 13:34:14;;;;;;;46.65;32.35;;;24.60;52.60;;;;;;5014820;28;20249;-78
2022/06/20 13:36:45;;;;;;;7.28;2.25;;;24.40;53.20;;;;;;4995942;28;20038;-79
2022/06/20 13:39:40;;;;;;;5.97;1.17;;;24.20;54.20;;;;;;4997053;28;20049;-83
2022/06/20 13:42:17;;;;;;;5.05;1.20;;;23.80;54.20;;;;;;5024202;28;20037;-78
2022/06/20 13:44:56;;;;;;;3.72;1.27;;;23.90;54.40;;;;;;5014575;28;20037;-79
2022/06/20 13:47:31;;;;;;;3.83;0.90;;;25.20;54.00;;;;;;5001818;28;20428;-78
2022/06/20 13:50:20;;;;;;;3.25;1.20;;;27.20;51.10;;;;;;5023949;28;20598;-79
2022/06/20 13:53:01;;;;;;;6.22;1.45;;;29.70;48.40;;;;;;5030817;28;20041;-82
2022/06/20 13:55:35;;;;;;;6.30;1.15;;;29.20;47.00;;;;;;5033922;28;20486;-77
2022/06/20 13:58:19;;;;;;;4.65;1.25;;;27.70;47.90;;;;;;5034717;28;20029;-78
2022/06/20 14:01:13;;;;;;;4.28;1.50;;;25.90;50.40;;;;;;5036058;28;20124;-79